createdAt,value
2017-05-28T00:00:34.130Z,19.47
2017-05-28T00:01:14.738Z,19.48
2017-05-28T00:01:55.331Z,19.45
2017-05-28T00:02:35.909Z,19.45
2017-05-28T00:03:16.506Z,19.41
2017-05-28T00:03:57.093Z,19.49
2017-05-28T00:04:37.664Z,19.41
2017-05-28T00:05:18.251Z,19.41
2017-05-28T00:05:58.837Z,19.41
2017-05-28T00:06:39.422Z,19.41
2017-05-28T00:07:20.003Z,19.49
2017-05-28T00:08:00.580Z,19.41
2017-05-28T00:08:41.193Z,19.39
2017-05-28T00:09:21.757Z,19.41
2017-05-28T00:10:02.339Z,19.44
2017-05-28T00:10:42.918Z,19.36
2017-05-28T00:11:23.492Z,19.37
2017-05-28T00:12:04.105Z,19.34
2017-05-28T00:12:44.690Z,19.29
2017-05-28T00:13:25.277Z,19.39
2017-05-28T00:14:05.878Z,19.36
2017-05-28T00:14:46.453Z,19.41
2017-05-28T00:15:27.044Z,19.41
2017-05-28T00:16:07.631Z,19.29
2017-05-28T00:16:48.218Z,19.37
2017-05-28T00:17:28.816Z,19.39
2017-05-28T00:18:09.421Z,19.33
2017-05-28T00:18:50.008Z,19.4
2017-05-28T00:19:30.602Z,19.4
2017-05-28T00:20:11.211Z,19.27
2017-05-28T00:20:51.789Z,19.31
2017-05-28T00:21:32.393Z,19.24
2017-05-28T00:22:12.973Z,19.36
2017-05-28T00:22:53.553Z,19.31
2017-05-28T00:23:34.139Z,19.33
2017-05-28T00:24:14.729Z,19.27
2017-05-28T00:24:55.319Z,19.21
2017-05-28T00:25:35.909Z,19.22
2017-05-28T00:26:16.565Z,19.14
2017-05-28T00:26:57.081Z,19.16
2017-05-28T00:27:37.667Z,19.15
2017-05-28T00:28:18.240Z,19.22
2017-05-28T00:28:58.826Z,19.22
2017-05-28T00:29:39.423Z,19.22
2017-05-28T00:30:20.039Z,19.21
2017-05-28T00:31:00.626Z,19.14
2017-05-28T00:31:41.196Z,19.18
2017-05-28T00:32:21.801Z,19.15
2017-05-28T00:33:02.374Z,19.16
2017-05-28T00:33:42.975Z,19.18
2017-05-28T00:34:23.562Z,19.12
2017-05-28T00:35:04.144Z,19.15
2017-05-28T00:35:44.719Z,19.04
2017-05-28T00:36:25.314Z,19
2017-05-28T00:37:05.937Z,19.16
2017-05-28T00:37:46.556Z,19.16
2017-05-28T00:38:27.156Z,19.12
2017-05-28T00:39:07.734Z,19.08
2017-05-28T00:39:48.321Z,19
2017-05-28T00:40:28.923Z,19.08
2017-05-28T00:41:09.509Z,18.99
2017-05-28T00:41:50.099Z,18.99
2017-05-28T00:42:30.690Z,19.04
2017-05-28T00:43:11.278Z,18.99
2017-05-28T00:43:51.875Z,19.11
2017-05-28T00:44:32.456Z,19.09
2017-05-28T00:45:13.028Z,19
2017-05-28T00:45:53.627Z,19
2017-05-28T00:46:34.212Z,19.04
2017-05-28T00:47:14.811Z,18.89
2017-05-28T00:47:55.442Z,18.9
2017-05-28T00:48:36.016Z,18.96
2017-05-28T00:49:16.633Z,18.92
2017-05-28T00:49:57.205Z,18.9
2017-05-28T00:50:37.782Z,18.84
2017-05-28T00:51:18.362Z,18.84
2017-05-28T00:51:58.976Z,18.81
2017-05-28T00:52:39.560Z,18.89
2017-05-28T00:53:20.144Z,18.92
2017-05-28T00:54:00.725Z,18.88
2017-05-28T00:54:41.308Z,18.84
2017-05-28T00:55:21.908Z,18.88
2017-05-28T00:56:02.493Z,18.89
2017-05-28T00:56:43.080Z,18.84
2017-05-28T00:57:23.683Z,18.88
2017-05-28T00:58:04.265Z,18.89
2017-05-28T00:58:44.853Z,18.88
2017-05-28T00:59:25.431Z,18.84
2017-05-28T01:00:06.063Z,18.86
2017-05-28T01:00:46.653Z,18.86
2017-05-28T01:01:27.242Z,18.9
2017-05-28T01:02:07.831Z,18.88
2017-05-28T01:02:48.415Z,18.81
2017-05-28T01:03:29.015Z,18.9
2017-05-28T01:04:09.608Z,18.78
2017-05-28T01:04:50.177Z,18.74
2017-05-28T01:05:30.824Z,18.84
2017-05-28T01:06:11.413Z,18.88
2017-05-28T01:06:52.056Z,18.73
2017-05-28T01:07:32.597Z,18.8
2017-05-28T01:08:13.189Z,18.78
2017-05-28T01:08:53.763Z,18.81
2017-05-28T01:09:34.370Z,18.81
2017-05-28T01:10:14.941Z,18.71
2017-05-28T01:10:55.556Z,18.74
2017-05-28T01:11:36.167Z,18.75
2017-05-28T01:12:16.757Z,18.78
2017-05-28T01:12:57.347Z,18.73
2017-05-28T01:13:37.953Z,18.66
2017-05-28T01:14:18.546Z,18.7
2017-05-28T01:14:59.141Z,18.7
2017-05-28T01:15:39.718Z,18.71
2017-05-28T01:16:20.316Z,18.77
2017-05-28T01:17:00.903Z,18.7
2017-05-28T01:17:41.483Z,18.71
2017-05-28T01:18:22.066Z,18.71
2017-05-28T01:19:02.650Z,18.68
2017-05-28T01:19:43.243Z,18.62
2017-05-28T01:20:23.813Z,18.7
2017-05-28T01:21:04.399Z,18.7
2017-05-28T01:21:44.975Z,18.63
2017-05-28T01:22:25.581Z,18.68
2017-05-28T01:23:06.162Z,18.7
2017-05-28T01:23:46.742Z,18.6
2017-05-28T01:24:27.323Z,18.6
2017-05-28T01:25:07.891Z,18.66
2017-05-28T01:25:48.479Z,18.74
2017-05-28T01:26:29.074Z,18.7
2017-05-28T01:27:09.655Z,18.66
2017-05-28T01:27:50.238Z,18.62
2017-05-28T01:28:30.859Z,18.7
2017-05-28T01:29:11.442Z,18.7
2017-05-28T01:29:52.022Z,18.71
2017-05-28T01:30:32.608Z,18.68
2017-05-28T01:31:13.177Z,18.65
2017-05-28T01:31:53.778Z,18.62
2017-05-28T01:32:34.357Z,18.65
2017-05-28T01:33:14.938Z,18.62
2017-05-28T01:33:55.529Z,18.63
2017-05-28T01:34:36.110Z,18.65
2017-05-28T01:35:16.698Z,18.55
2017-05-28T01:35:57.291Z,18.59
2017-05-28T01:36:37.889Z,18.6
2017-05-28T01:37:18.500Z,18.6
2017-05-28T01:37:59.102Z,18.59
2017-05-28T01:38:39.702Z,18.56
2017-05-28T01:39:20.287Z,18.55
2017-05-28T01:40:00.864Z,18.59
2017-05-28T01:40:41.461Z,18.53
2017-05-28T01:41:22.050Z,18.52
2017-05-28T01:42:02.633Z,18.56
2017-05-28T01:42:43.221Z,18.53
2017-05-28T01:43:23.815Z,18.53
2017-05-28T01:44:04.405Z,18.59
2017-05-28T01:44:44.987Z,18.55
2017-05-28T01:45:25.575Z,18.56
2017-05-28T01:46:06.167Z,18.56
2017-05-28T01:46:46.746Z,18.53
2017-05-28T01:47:27.337Z,18.55
2017-05-28T01:48:07.918Z,18.52
2017-05-28T01:48:48.502Z,18.5
2017-05-28T01:49:29.098Z,18.47
2017-05-28T01:50:09.681Z,18.49
2017-05-28T01:50:50.274Z,18.43
2017-05-28T01:51:30.858Z,18.44
2017-05-28T01:52:11.444Z,18.4
2017-05-28T01:52:52.020Z,18.52
2017-05-28T01:53:32.603Z,18.44
2017-05-28T01:54:13.191Z,18.41
2017-05-28T01:54:53.774Z,18.34
2017-05-28T01:55:34.356Z,18.41
2017-05-28T01:56:14.939Z,18.29
2017-05-28T01:56:55.551Z,18.45
2017-05-28T01:57:36.141Z,18.38
2017-05-28T01:58:16.762Z,18.37
2017-05-28T01:58:57.351Z,18.44
2017-05-28T01:59:37.935Z,18.33
2017-05-28T02:00:18.515Z,18.4
2017-05-28T02:00:59.097Z,18.41
2017-05-28T02:01:39.687Z,18.47
2017-05-28T02:02:20.292Z,18.33
2017-05-28T02:03:00.878Z,18.47
2017-05-28T02:03:41.488Z,18.41
2017-05-28T02:04:22.074Z,18.35
2017-05-28T02:05:02.681Z,18.33
2017-05-28T02:05:43.263Z,18.34
2017-05-28T02:06:23.849Z,18.29
2017-05-28T02:07:04.433Z,18.26
2017-05-28T02:07:45.015Z,18.34
2017-05-28T02:08:25.603Z,18.37
2017-05-28T02:09:06.183Z,18.28
2017-05-28T02:09:46.773Z,18.26
2017-05-28T02:10:27.347Z,18.29
2017-05-28T02:11:07.927Z,18.34
2017-05-28T02:11:48.511Z,18.33
2017-05-28T02:12:29.122Z,18.31
2017-05-28T02:13:09.697Z,18.34
2017-05-28T02:13:50.306Z,18.33
2017-05-28T02:14:30.903Z,18.23
2017-05-28T02:15:11.486Z,18.25
2017-05-28T02:15:52.095Z,18.23
2017-05-28T02:16:32.668Z,18.23
2017-05-28T02:17:13.260Z,18.22
2017-05-28T02:17:53.838Z,18.28
2017-05-28T02:18:34.412Z,18.31
2017-05-28T02:19:15.000Z,18.25
2017-05-28T02:19:55.591Z,18.23
2017-05-28T02:20:36.175Z,18.34
2017-05-28T02:21:16.773Z,18.29
2017-05-28T02:21:57.358Z,18.29
2017-05-28T02:22:37.938Z,18.28
2017-05-28T02:23:18.530Z,18.22
2017-05-28T02:23:59.109Z,18.1
2017-05-28T02:24:39.696Z,18.15
2017-05-28T02:25:20.288Z,18.2
2017-05-28T02:26:00.874Z,18.18
2017-05-28T02:26:41.475Z,18.22
2017-05-28T02:27:22.063Z,18.15
2017-05-28T02:28:02.648Z,18.19
2017-05-28T02:28:43.229Z,18.15
2017-05-28T02:29:23.805Z,18.19
2017-05-28T02:30:04.395Z,18.07
2017-05-28T02:30:44.975Z,18.13
2017-05-28T02:31:25.548Z,18.13
2017-05-28T02:32:06.134Z,18.1
2017-05-28T02:32:46.705Z,18.08
2017-05-28T02:33:27.282Z,18
2017-05-28T02:34:07.871Z,18
2017-05-28T02:34:48.455Z,18.01
2017-05-28T02:35:29.040Z,18
2017-05-28T02:36:09.618Z,17.98
2017-05-28T02:36:50.199Z,17.98
2017-05-28T02:37:30.829Z,17.95
2017-05-28T02:38:11.412Z,17.95
2017-05-28T02:38:52.018Z,17.98
2017-05-28T02:39:32.598Z,17.97
2017-05-28T02:40:13.196Z,17.98
2017-05-28T02:40:53.792Z,17.98
2017-05-28T02:41:34.380Z,17.98
2017-05-28T02:42:14.991Z,17.86
2017-05-28T02:42:55.576Z,17.92
2017-05-28T02:43:36.173Z,17.94
2017-05-28T02:44:16.762Z,17.9
2017-05-28T02:44:57.345Z,17.94
2017-05-28T02:45:37.935Z,17.86
2017-05-28T02:46:18.516Z,17.86
2017-05-28T02:46:59.107Z,17.87
2017-05-28T02:47:39.690Z,17.82
2017-05-28T02:48:20.281Z,17.87
2017-05-28T02:49:00.872Z,17.8
2017-05-28T02:49:41.447Z,17.76
2017-05-28T02:50:22.029Z,17.86
2017-05-28T02:51:02.629Z,17.72
2017-05-28T02:51:43.237Z,17.74
2017-05-28T02:52:23.827Z,17.78
2017-05-28T02:53:04.412Z,17.78
2017-05-28T02:53:45.067Z,17.8
2017-05-28T02:54:25.660Z,17.85
2017-05-28T02:55:06.241Z,17.71
2017-05-28T02:55:46.859Z,17.78
2017-05-28T02:56:27.441Z,17.71
2017-05-28T02:57:08.027Z,17.7
2017-05-28T02:57:48.647Z,17.71
2017-05-28T02:58:29.232Z,17.67
2017-05-28T02:59:09.815Z,17.71
2017-05-28T02:59:50.400Z,17.65
2017-05-28T03:00:30.984Z,17.57
2017-05-28T03:01:11.562Z,17.59
2017-05-28T03:01:52.135Z,17.59
2017-05-28T03:02:32.734Z,17.65
2017-05-28T03:03:13.363Z,17.54
2017-05-28T03:03:53.898Z,17.56
2017-05-28T03:04:34.489Z,17.59
2017-05-28T03:05:15.082Z,17.52
2017-05-28T03:05:55.690Z,17.6
2017-05-28T03:06:36.273Z,17.49
2017-05-28T03:07:16.855Z,17.54
2017-05-28T03:07:57.464Z,17.6
2017-05-28T03:08:38.044Z,17.49
2017-05-28T03:09:18.649Z,17.44
2017-05-28T03:09:59.243Z,17.44
2017-05-28T03:10:39.843Z,17.44
2017-05-28T03:11:20.433Z,17.44
2017-05-28T03:12:01.016Z,17.38
2017-05-28T03:12:41.613Z,17.41
2017-05-28T03:13:22.203Z,17.42
2017-05-28T03:14:02.814Z,17.34
2017-05-28T03:14:43.401Z,17.33
2017-05-28T03:15:23.972Z,17.3
2017-05-28T03:16:04.568Z,17.31
2017-05-28T03:16:45.139Z,17.34
2017-05-28T03:17:25.733Z,17.33
2017-05-28T03:18:06.328Z,17.33
2017-05-28T03:18:46.911Z,17.3
2017-05-28T03:19:27.490Z,17.3
2017-05-28T03:20:08.072Z,17.31
2017-05-28T03:20:48.691Z,17.34
2017-05-28T03:21:29.271Z,17.33
2017-05-28T03:22:09.864Z,17.38
2017-05-28T03:22:50.512Z,17.34
2017-05-28T03:23:31.096Z,17.33
2017-05-28T03:24:11.694Z,17.34
2017-05-28T03:24:52.277Z,17.34
2017-05-28T03:25:32.883Z,17.31
2017-05-28T03:26:13.488Z,17.33
2017-05-28T03:26:54.066Z,17.3
2017-05-28T03:27:34.675Z,17.38
2017-05-28T03:28:15.270Z,17.34
2017-05-28T03:28:55.847Z,17.39
2017-05-28T03:29:36.438Z,17.27
2017-05-28T03:30:17.051Z,17.31
2017-05-28T03:30:57.651Z,17.2
2017-05-28T03:31:38.241Z,17.26
2017-05-28T03:32:18.829Z,17.29
2017-05-28T03:32:59.423Z,17.22
2017-05-28T03:33:39.997Z,17.19
2017-05-28T03:34:20.606Z,17.23
2017-05-28T03:35:01.184Z,17.16
2017-05-28T03:35:41.776Z,17.23
2017-05-28T03:36:22.361Z,17.19
2017-05-28T03:37:02.968Z,17.26
2017-05-28T03:37:43.540Z,17.15
2017-05-28T03:38:24.154Z,17.16
2017-05-28T03:39:04.742Z,17.22
2017-05-28T03:39:45.324Z,17.22
2017-05-28T03:40:25.916Z,17.23
2017-05-28T03:41:06.502Z,17.23
2017-05-28T03:41:47.109Z,17.16
2017-05-28T03:42:27.683Z,17.24
2017-05-28T03:43:08.269Z,17.22
2017-05-28T03:43:48.861Z,17.22
2017-05-28T03:44:29.456Z,17.22
2017-05-28T03:45:10.041Z,17.22
2017-05-28T03:45:50.618Z,17.26
2017-05-28T03:46:31.232Z,17.26
2017-05-28T03:47:11.820Z,17.24
2017-05-28T03:47:52.410Z,17.31
2017-05-28T03:48:32.993Z,17.33
2017-05-28T03:49:13.590Z,17.26
2017-05-28T03:49:54.166Z,17.22
2017-05-28T03:50:34.785Z,17.26
2017-05-28T03:51:15.380Z,17.23
2017-05-28T03:51:55.975Z,17.24
2017-05-28T03:52:36.555Z,17.22
2017-05-28T03:53:17.139Z,17.2
2017-05-28T03:53:57.719Z,17.24
2017-05-28T03:54:38.324Z,17.26
2017-05-28T03:55:18.929Z,17.19
2017-05-28T03:55:59.509Z,17.15
2017-05-28T03:56:40.100Z,17.19
2017-05-28T03:57:20.679Z,17.15
2017-05-28T03:58:01.263Z,17.2
2017-05-28T03:58:41.850Z,17.19
2017-05-28T03:59:22.436Z,17.22
2017-05-28T04:00:03.009Z,17.16
2017-05-28T04:00:43.637Z,17.26
2017-05-28T04:01:24.226Z,17.12
2017-05-28T04:02:04.825Z,17.23
2017-05-28T04:02:45.424Z,17.19
2017-05-28T04:03:26.009Z,17.2
2017-05-28T04:04:06.615Z,17.23
2017-05-28T04:04:47.203Z,17.24
2017-05-28T04:05:27.782Z,17.22
2017-05-28T04:06:08.399Z,17.23
2017-05-28T04:06:48.982Z,17.27
2017-05-28T04:07:29.557Z,17.19
2017-05-28T04:08:10.143Z,17.19
2017-05-28T04:08:50.717Z,17.24
2017-05-28T04:09:31.309Z,17.19
2017-05-28T04:10:11.881Z,17.14
2017-05-28T04:10:52.478Z,17.14
2017-05-28T04:11:33.070Z,17.12
2017-05-28T04:12:13.661Z,17.15
2017-05-28T04:12:54.256Z,17.14
2017-05-28T04:13:34.841Z,17.14
2017-05-28T04:14:15.419Z,17.12
2017-05-28T04:14:56.013Z,17.15
2017-05-28T04:15:36.595Z,17.15
2017-05-28T04:16:17.183Z,17.08
2017-05-28T04:16:57.771Z,17.15
2017-05-28T04:17:38.356Z,17.2
2017-05-28T04:18:18.940Z,17.23
2017-05-28T04:18:59.551Z,17.19
2017-05-28T04:19:40.149Z,17.2
2017-05-28T04:20:20.720Z,17.2
2017-05-28T04:21:01.325Z,17.2
2017-05-28T04:21:41.909Z,17.23
2017-05-28T04:22:22.494Z,17.2
2017-05-28T04:23:03.083Z,17.24
2017-05-28T04:23:43.662Z,17.23
2017-05-28T04:24:24.262Z,17.22
2017-05-28T04:25:04.882Z,17.24
2017-05-28T04:25:45.491Z,17.15
2017-05-28T04:26:26.085Z,17.23
2017-05-28T04:27:06.673Z,17.24
2017-05-28T04:27:47.267Z,17.22
2017-05-28T04:28:27.840Z,17.22
2017-05-28T04:29:08.431Z,17.23
2017-05-28T04:29:49.023Z,17.23
2017-05-28T04:30:29.587Z,17.14
2017-05-28T04:31:10.173Z,17.2
2017-05-28T04:31:50.759Z,17.24
2017-05-28T04:32:31.346Z,17.41
2017-05-28T04:33:11.932Z,17.31
2017-05-28T04:33:52.513Z,17.31
2017-05-28T04:34:33.093Z,17.31
2017-05-28T04:35:13.672Z,17.31
2017-05-28T04:35:54.283Z,17.31
2017-05-28T04:36:34.868Z,17.31
2017-05-28T04:37:15.458Z,17.36
2017-05-28T04:37:56.053Z,17.42
2017-05-28T04:38:36.627Z,17.34
2017-05-28T04:39:17.222Z,17.33
2017-05-28T04:39:57.800Z,17.38
2017-05-28T04:40:38.381Z,17.38
2017-05-28T04:41:19.011Z,17.42
2017-05-28T04:41:59.588Z,17.41
2017-05-28T04:42:40.173Z,17.42
2017-05-28T04:43:20.759Z,17.44
2017-05-28T04:44:01.360Z,17.44
2017-05-28T04:44:41.935Z,17.48
2017-05-28T04:45:22.520Z,17.51
2017-05-28T04:46:03.125Z,17.49
2017-05-28T04:46:43.695Z,17.48
2017-05-28T04:47:24.278Z,17.45
2017-05-28T04:48:04.874Z,17.49
2017-05-28T04:48:45.456Z,17.46
2017-05-28T04:49:26.028Z,17.48
2017-05-28T04:50:06.603Z,17.59
2017-05-28T04:50:47.227Z,17.56
2017-05-28T04:51:27.843Z,17.59
2017-05-28T04:52:08.418Z,17.64
2017-05-28T04:52:48.995Z,17.64
2017-05-28T04:53:29.589Z,17.57
2017-05-28T04:54:10.194Z,17.72
2017-05-28T04:54:50.826Z,17.52
2017-05-28T04:55:31.422Z,17.63
2017-05-28T04:56:12.008Z,17.63
2017-05-28T04:56:52.593Z,17.67
2017-05-28T04:57:33.193Z,17.63
2017-05-28T04:58:13.784Z,17.76
2017-05-28T04:58:54.372Z,17.71
2017-05-28T04:59:34.947Z,17.74
2017-05-28T05:00:15.534Z,17.78
2017-05-28T05:00:56.116Z,17.74
2017-05-28T05:01:36.709Z,17.71
2017-05-28T05:02:17.295Z,17.74
2017-05-28T05:02:57.875Z,17.72
2017-05-28T05:03:38.469Z,17.83
2017-05-28T05:04:19.143Z,17.76
2017-05-28T05:04:59.738Z,17.76
2017-05-28T05:05:40.316Z,17.87
2017-05-28T05:06:20.892Z,17.89
2017-05-28T05:07:01.478Z,17.87
2017-05-28T05:07:42.076Z,17.85
2017-05-28T05:08:22.655Z,17.87
2017-05-28T05:09:03.238Z,17.9
2017-05-28T05:09:43.824Z,17.95
2017-05-28T05:10:24.473Z,17.9
2017-05-28T05:11:05.081Z,17.95
2017-05-28T05:11:45.684Z,17.95
2017-05-28T05:12:26.278Z,17.97
2017-05-28T05:13:06.866Z,17.87
2017-05-28T05:13:47.449Z,17.9
2017-05-28T05:14:28.088Z,17.95
2017-05-28T05:15:08.681Z,18.01
2017-05-28T05:15:49.257Z,17.94
2017-05-28T05:16:29.844Z,17.98
2017-05-28T05:17:10.449Z,17.92
2017-05-28T05:17:51.048Z,17.98
2017-05-28T05:18:31.657Z,18.03
2017-05-28T05:19:12.258Z,18.01
2017-05-28T05:19:52.838Z,18.05
2017-05-28T05:20:33.417Z,18.07
2017-05-28T05:21:14.039Z,18.07
2017-05-28T05:21:54.619Z,18.15
2017-05-28T05:22:35.197Z,18.08
2017-05-28T05:23:15.784Z,18.15
2017-05-28T05:23:56.371Z,18.2
2017-05-28T05:24:36.979Z,18.26
2017-05-28T05:25:17.540Z,18.29
2017-05-28T05:25:58.135Z,18.38
2017-05-28T05:26:38.705Z,18.37
2017-05-28T05:27:19.320Z,18.38
2017-05-28T05:27:59.900Z,18.45
2017-05-28T05:28:40.484Z,18.56
2017-05-28T05:29:21.138Z,18.65
2017-05-28T05:30:01.707Z,18.74
2017-05-28T05:30:42.291Z,18.89
2017-05-28T05:31:22.877Z,18.89
2017-05-28T05:32:03.451Z,18.98
2017-05-28T05:32:44.045Z,19.04
2017-05-28T05:33:24.646Z,19.16
2017-05-28T05:34:05.234Z,19.24
2017-05-28T05:34:45.827Z,19.3
2017-05-28T05:35:26.418Z,19.44
2017-05-28T05:36:07.025Z,19.59
2017-05-28T05:36:47.615Z,19.63
2017-05-28T05:37:28.205Z,19.63
2017-05-28T05:38:08.795Z,19.77
2017-05-28T05:38:49.392Z,19.86
2017-05-28T05:39:29.978Z,19.92
2017-05-28T05:40:10.560Z,19.92
2017-05-28T05:40:51.164Z,20.13
2017-05-28T05:41:31.764Z,20.19
2017-05-28T05:42:12.354Z,20.34
2017-05-28T05:42:52.950Z,20.31
2017-05-28T05:43:33.555Z,20.44
2017-05-28T05:44:14.160Z,20.58
2017-05-28T05:44:54.745Z,20.6
2017-05-28T05:45:35.371Z,20.65
2017-05-28T05:46:15.983Z,20.74
2017-05-28T05:46:56.557Z,20.81
2017-05-28T05:47:37.133Z,20.88
2017-05-28T05:48:17.718Z,20.99
2017-05-28T05:48:58.319Z,21.09
2017-05-28T05:49:38.911Z,21.03
2017-05-28T05:50:19.495Z,21.09
2017-05-28T05:51:00.098Z,21.17
2017-05-28T05:51:40.701Z,21.25
2017-05-28T05:52:21.301Z,21.35
2017-05-28T05:53:01.880Z,21.39
2017-05-28T05:53:42.466Z,21.51
2017-05-28T05:54:23.069Z,21.58
2017-05-28T05:55:03.663Z,21.55
2017-05-28T05:55:44.263Z,21.75
2017-05-28T05:56:24.889Z,21.77
2017-05-28T05:57:05.479Z,21.76
2017-05-28T05:57:46.068Z,21.85
2017-05-28T05:58:26.680Z,21.89
2017-05-28T05:59:07.273Z,21.89
2017-05-28T05:59:47.869Z,22.04
2017-05-28T06:00:28.458Z,22.14
2017-05-28T06:01:09.046Z,22.15
2017-05-28T06:01:49.647Z,22.25
2017-05-28T06:02:30.249Z,22.26
2017-05-28T06:03:10.832Z,22.29
2017-05-28T06:03:51.425Z,22.38
2017-05-28T06:04:32.009Z,22.44
2017-05-28T06:05:12.607Z,22.5
2017-05-28T06:05:53.221Z,22.55
2017-05-28T06:06:33.811Z,22.59
2017-05-28T06:07:14.399Z,22.65
2017-05-28T06:07:54.997Z,22.75
2017-05-28T06:08:35.601Z,22.76
2017-05-28T06:09:16.227Z,22.76
2017-05-28T06:09:56.823Z,22.84
2017-05-28T06:10:37.408Z,23.02
2017-05-28T06:11:18.008Z,23.1
2017-05-28T06:11:58.597Z,23.1
2017-05-28T06:12:39.189Z,23.13
2017-05-28T06:13:19.817Z,23.28
2017-05-28T06:14:00.456Z,23.36
2017-05-28T06:14:41.053Z,23.39
2017-05-28T06:15:21.653Z,23.41
2017-05-28T06:16:02.250Z,23.48
2017-05-28T06:16:42.837Z,23.48
2017-05-28T06:17:23.433Z,23.59
2017-05-28T06:18:04.013Z,23.62
2017-05-28T06:18:44.610Z,23.71
2017-05-28T06:19:25.191Z,23.73
2017-05-28T06:20:05.785Z,23.77
2017-05-28T06:20:46.383Z,23.83
2017-05-28T06:21:27.030Z,23.86
2017-05-28T06:22:07.619Z,23.95
2017-05-28T06:22:48.217Z,23.95
2017-05-28T06:23:28.814Z,24.1
2017-05-28T06:24:09.406Z,24.14
2017-05-28T06:24:49.996Z,24.11
2017-05-28T06:25:30.597Z,24.1
2017-05-28T06:26:11.195Z,24.16
2017-05-28T06:26:51.786Z,24.14
2017-05-28T06:27:32.394Z,24.13
2017-05-28T06:28:13.010Z,24.16
2017-05-28T06:28:53.614Z,24.06
2017-05-28T06:29:34.218Z,24.23
2017-05-28T06:30:14.825Z,24.16
2017-05-28T06:30:55.416Z,24.28
2017-05-28T06:31:36.002Z,24.33
2017-05-28T06:32:16.602Z,24.42
2017-05-28T06:32:57.202Z,24.45
2017-05-28T06:33:37.798Z,24.51
2017-05-28T06:34:18.385Z,24.54
2017-05-28T06:34:59.025Z,24.55
2017-05-28T06:35:39.624Z,24.61
2017-05-28T06:36:20.218Z,24.7
2017-05-28T06:37:00.843Z,24.68
2017-05-28T06:37:41.431Z,24.78
2017-05-28T06:38:22.025Z,24.85
2017-05-28T06:39:02.631Z,24.92
2017-05-28T06:39:43.218Z,24.93
2017-05-28T06:40:23.813Z,25.06
2017-05-28T06:41:04.447Z,25.08
2017-05-28T06:41:45.053Z,25.08
2017-05-28T06:42:25.657Z,25.11
2017-05-28T06:43:06.262Z,25.11
2017-05-28T06:43:46.865Z,25.14
2017-05-28T06:44:27.466Z,25.26
2017-05-28T06:45:08.056Z,25.21
2017-05-28T06:45:48.665Z,25.25
2017-05-28T06:46:29.267Z,25.32
2017-05-28T06:47:09.872Z,25.29
2017-05-28T06:47:50.506Z,25.31
2017-05-28T06:48:31.098Z,25.36
2017-05-28T06:49:11.737Z,25.32
2017-05-28T06:49:52.332Z,25.35
2017-05-28T06:50:32.927Z,25.36
2017-05-28T06:51:13.550Z,25.4
2017-05-28T06:51:54.167Z,25.47
2017-05-28T06:52:34.754Z,25.43
2017-05-28T06:53:15.359Z,25.58
2017-05-28T06:53:55.953Z,25.48
2017-05-28T06:54:36.553Z,25.58
2017-05-28T06:55:17.160Z,25.58
2017-05-28T06:55:57.768Z,25.5
2017-05-28T06:56:38.359Z,25.66
2017-05-28T06:57:18.966Z,25.65
2017-05-28T06:57:59.556Z,25.66
2017-05-28T06:58:40.162Z,25.62
2017-05-28T06:59:20.748Z,25.6
2017-05-28T07:00:01.342Z,25.65
2017-05-28T07:00:41.948Z,25.7
2017-05-28T07:01:22.543Z,25.7
2017-05-28T07:02:03.133Z,25.66
2017-05-28T07:02:43.740Z,25.77
2017-05-28T07:03:24.325Z,25.78
2017-05-28T07:04:04.923Z,25.84
2017-05-28T07:04:45.524Z,25.88
2017-05-28T07:05:26.128Z,25.88
2017-05-28T07:06:06.726Z,25.91
2017-05-28T07:06:47.356Z,26.03
2017-05-28T07:07:27.920Z,25.96
2017-05-28T07:08:08.533Z,25.93
2017-05-28T07:08:49.144Z,26.02
2017-05-28T07:09:29.748Z,25.99
2017-05-28T07:10:10.371Z,26.05
2017-05-28T07:10:50.959Z,26.07
2017-05-28T07:11:31.558Z,26.07
2017-05-28T07:12:12.180Z,26.16
2017-05-28T07:12:52.768Z,26.1
2017-05-28T07:13:33.394Z,26.13
2017-05-28T07:14:14.001Z,26.19
2017-05-28T07:14:54.590Z,26.18
2017-05-28T07:15:35.201Z,26.22
2017-05-28T07:16:15.821Z,26.13
2017-05-28T07:16:56.434Z,26.19
2017-05-28T07:17:37.052Z,26.13
2017-05-28T07:18:17.691Z,26.09
2017-05-28T07:18:58.260Z,26.07
2017-05-28T07:19:38.854Z,26.16
2017-05-28T07:20:19.444Z,26.07
2017-05-28T07:21:00.044Z,26.13
2017-05-28T07:21:40.640Z,26.16
2017-05-28T07:22:21.242Z,26.23
2017-05-28T07:23:01.848Z,26.25
2017-05-28T07:23:42.462Z,26.23
2017-05-28T07:24:23.075Z,26.26
2017-05-28T07:25:03.674Z,26.38
2017-05-28T07:25:44.294Z,26.36
2017-05-28T07:26:24.892Z,26.44
2017-05-28T07:27:05.493Z,26.53
2017-05-28T07:27:46.122Z,26.63
2017-05-28T07:28:26.723Z,26.65
2017-05-28T07:29:07.336Z,26.63
2017-05-28T07:29:47.951Z,26.74
2017-05-28T07:30:28.561Z,26.78
2017-05-28T07:31:09.169Z,26.7
2017-05-28T07:31:49.787Z,26.7
2017-05-28T07:32:30.393Z,26.7
2017-05-28T07:33:11.000Z,26.66
2017-05-28T07:33:51.610Z,26.75
2017-05-28T07:34:32.227Z,26.7
2017-05-28T07:35:12.828Z,26.65
2017-05-28T07:35:53.440Z,26.68
2017-05-28T07:36:34.049Z,26.8
2017-05-28T07:37:14.675Z,26.77
2017-05-28T07:37:55.282Z,26.8
2017-05-28T07:38:35.909Z,26.81
2017-05-28T07:39:16.516Z,26.8
2017-05-28T07:39:57.156Z,26.95
2017-05-28T07:40:37.771Z,26.96
2017-05-28T07:41:18.402Z,27.02
2017-05-28T07:41:59.000Z,27.03
2017-05-28T07:42:39.610Z,27.12
2017-05-28T07:43:20.236Z,27.12
2017-05-28T07:44:00.852Z,27.21
2017-05-28T07:44:41.464Z,27.2
2017-05-28T07:45:22.069Z,27.25
2017-05-28T07:46:02.686Z,27.18
2017-05-28T07:46:43.290Z,27.21
2017-05-28T07:47:23.912Z,27.21
2017-05-28T07:48:04.547Z,27.17
2017-05-28T07:48:45.126Z,27.25
2017-05-28T07:49:25.748Z,27.25
2017-05-28T07:50:06.370Z,27.17
2017-05-28T07:50:46.971Z,27.2
2017-05-28T07:51:27.597Z,27.25
2017-05-28T07:52:08.208Z,27.3
2017-05-28T07:52:48.812Z,27.27
2017-05-28T07:53:29.439Z,27.35
2017-05-28T07:54:10.047Z,27.33
2017-05-28T07:54:50.660Z,27.39
2017-05-28T07:55:31.278Z,27.37
2017-05-28T07:56:11.893Z,27.33
2017-05-28T07:56:52.498Z,27.36
2017-05-28T07:57:33.118Z,27.36
2017-05-28T07:58:13.775Z,27.48
2017-05-28T07:58:54.417Z,27.37
2017-05-28T07:59:35.038Z,27.52
2017-05-28T08:00:15.652Z,27.37
2017-05-28T08:00:56.268Z,27.49
2017-05-28T08:01:36.871Z,27.44
2017-05-28T08:02:17.486Z,27.44
2017-05-28T08:02:58.101Z,27.45
2017-05-28T08:03:38.700Z,27.4
2017-05-28T08:04:19.302Z,27.47
2017-05-28T08:04:59.907Z,27.47
2017-05-28T08:05:40.503Z,27.37
2017-05-28T08:06:21.108Z,27.42
2017-05-28T08:07:01.707Z,27.47
2017-05-28T08:07:42.304Z,27.37
2017-05-28T08:08:22.908Z,27.39
2017-05-28T08:09:03.502Z,27.58
2017-05-28T08:09:44.135Z,27.37
2017-05-28T08:10:24.739Z,27.39
2017-05-28T08:11:05.343Z,27.44
2017-05-28T08:11:45.944Z,27.51
2017-05-28T08:12:26.544Z,27.49
2017-05-28T08:13:07.144Z,27.48
2017-05-28T08:13:47.736Z,27.52
2017-05-28T08:14:28.335Z,27.49
2017-05-28T08:15:08.952Z,27.63
2017-05-28T08:15:49.565Z,27.58
2017-05-28T08:16:30.168Z,27.6
2017-05-28T08:17:10.776Z,27.63
2017-05-28T08:17:51.372Z,27.58
2017-05-28T08:18:31.953Z,27.6
2017-05-28T08:19:12.547Z,27.52
2017-05-28T08:19:53.157Z,27.67
2017-05-28T08:20:33.749Z,27.64
2017-05-28T08:21:14.335Z,27.68
2017-05-28T08:21:54.935Z,27.71
2017-05-28T08:22:35.562Z,27.68
2017-05-28T08:23:16.171Z,27.73
2017-05-28T08:23:56.842Z,27.71
2017-05-28T08:24:37.448Z,27.8
2017-05-28T08:25:18.045Z,27.73
2017-05-28T08:25:58.635Z,27.7
2017-05-28T08:26:39.216Z,27.74
2017-05-28T08:27:19.825Z,27.77
2017-05-28T08:28:00.411Z,27.71
2017-05-28T08:28:41.015Z,27.8
2017-05-28T08:29:21.619Z,27.73
2017-05-28T08:30:02.218Z,27.74
2017-05-28T08:30:42.819Z,27.74
2017-05-28T08:31:23.421Z,27.74
2017-05-28T08:32:04.010Z,27.74
2017-05-28T08:32:44.654Z,27.8
2017-05-28T08:33:25.241Z,27.82
2017-05-28T08:34:05.875Z,27.82
2017-05-28T08:34:46.478Z,27.83
2017-05-28T08:35:27.079Z,27.78
2017-05-28T08:36:07.675Z,27.82
2017-05-28T08:36:48.263Z,27.89
2017-05-28T08:37:28.873Z,27.85
2017-05-28T08:38:09.481Z,27.8
2017-05-28T08:38:50.083Z,27.73
2017-05-28T08:39:30.661Z,27.68
2017-05-28T08:40:11.262Z,27.68
2017-05-28T08:40:51.867Z,27.64
2017-05-28T08:41:32.470Z,27.7
2017-05-28T08:42:13.069Z,27.68
2017-05-28T08:42:53.656Z,27.71
2017-05-28T08:43:34.242Z,27.68
2017-05-28T08:44:14.840Z,27.7
2017-05-28T08:44:55.434Z,27.77
2017-05-28T08:45:36.035Z,27.7